createdAt,value
2018-09-12T00:02:14.794Z,23.50
2018-09-12T00:04:43.093Z,23.50
2018-09-12T00:07:12.154Z,23.50
2018-09-12T00:09:40.457Z,23.50
2018-09-12T00:12:08.694Z,23.50
2018-09-12T00:14:37.285Z,23.40
2018-09-12T00:17:05.538Z,23.40
2018-09-12T00:19:33.835Z,23.50
2018-09-12T00:22:02.102Z,23.40
2018-09-12T00:24:30.318Z,23.40
2018-09-12T00:26:58.889Z,23.40
2018-09-12T00:29:27.662Z,23.40
2018-09-12T00:31:55.882Z,23.40
2018-09-12T00:34:24.106Z,23.40
2018-09-12T00:36:52.652Z,23.40
2018-09-12T00:39:20.877Z,23.40
2018-09-12T00:41:49.120Z,23.40
2018-09-12T00:44:17.385Z,23.40
2018-09-12T00:46:45.599Z,23.40
2018-09-12T00:49:13.836Z,23.40
2018-09-12T00:51:42.377Z,23.40
2018-09-12T00:54:10.599Z,23.40
2018-09-12T00:56:38.821Z,23.40
2018-09-12T00:59:07.602Z,23.40
2018-09-12T01:01:35.881Z,23.40
2018-09-12T01:04:04.119Z,23.40
2018-09-12T01:06:32.409Z,23.40
2018-09-12T01:09:00.639Z,23.40
2018-09-12T01:11:28.876Z,23.40
2018-09-12T01:13:57.674Z,23.40
2018-09-12T01:16:25.887Z,23.40
2018-09-12T01:18:54.193Z,23.40
2018-09-12T01:21:22.450Z,23.40
2018-09-12T01:23:50.669Z,23.40
2018-09-12T01:26:18.927Z,23.40
2018-09-12T01:28:48.568Z,23.30
2018-09-12T01:31:16.802Z,23.40
2018-09-12T01:33:45.018Z,23.30
2018-09-12T01:36:13.593Z,23.30
2018-09-12T01:38:41.814Z,23.30
2018-09-12T01:41:10.050Z,23.30
2018-09-12T01:43:38.626Z,23.30
2018-09-12T01:46:06.854Z,23.30
2018-09-12T01:48:35.075Z,23.30
2018-09-12T01:51:03.774Z,23.30
2018-09-12T01:53:32.084Z,23.30
2018-09-12T01:56:00.310Z,23.30
2018-09-12T01:58:29.423Z,23.30
2018-09-12T02:00:57.648Z,23.30
2018-09-12T02:03:28.637Z,23.30
2018-09-12T02:05:56.977Z,23.30
2018-09-12T02:08:25.182Z,23.30
2018-09-12T02:10:53.873Z,23.30
2018-09-12T02:13:22.112Z,23.30
2018-09-12T02:15:50.578Z,23.30
2018-09-12T02:18:18.847Z,23.30
2018-09-12T02:20:47.158Z,23.30
2018-09-12T02:23:16.252Z,23.30
2018-09-12T02:25:44.697Z,23.30
2018-09-12T02:28:12.929Z,23.30
2018-09-12T02:30:41.153Z,23.30
2018-09-12T02:33:09.506Z,23.20
2018-09-12T02:35:42.953Z,23.30
2018-09-12T02:38:11.477Z,23.20
2018-09-12T02:40:39.786Z,23.30
2018-09-12T02:43:08.018Z,23.20
2018-09-12T02:45:38.150Z,23.20
2018-09-12T02:48:06.551Z,23.20
2018-09-12T02:50:34.783Z,23.20
2018-09-12T02:53:03.492Z,23.20
2018-09-12T02:55:31.719Z,23.20
2018-09-12T02:58:00.043Z,23.20
2018-09-12T03:00:29.346Z,23.20
2018-09-12T03:02:57.657Z,23.30
2018-09-12T03:05:25.915Z,23.20
2018-09-12T03:07:54.339Z,23.20
2018-09-12T03:10:22.487Z,23.20
2018-09-12T03:12:50.783Z,23.20
2018-09-12T03:15:19.413Z,23.20
2018-09-12T03:17:47.711Z,23.20
2018-09-12T03:20:15.946Z,23.20
2018-09-12T03:22:45.211Z,23.20
2018-09-12T03:25:13.754Z,23.20
2018-09-12T03:27:41.979Z,23.20
2018-09-12T03:30:10.306Z,23.20
2018-09-12T03:32:38.606Z,23.20
2018-09-12T03:35:07.011Z,23.20
2018-09-12T03:37:35.304Z,23.20
2018-09-12T03:40:03.526Z,23.20
2018-09-12T03:42:31.741Z,23.20
2018-09-12T03:45:00.888Z,23.20
2018-09-12T03:47:29.121Z,23.20
2018-09-12T03:49:57.346Z,23.20
2018-09-12T03:52:25.606Z,23.20
2018-09-12T03:54:53.906Z,23.20
2018-09-12T03:57:22.131Z,23.10
2018-09-12T03:59:50.509Z,23.20
2018-09-12T04:02:18.817Z,23.20
2018-09-12T04:04:47.106Z,23.20
2018-09-12T04:07:15.903Z,23.10
2018-09-12T04:09:44.210Z,23.10
2018-09-12T04:12:12.426Z,23.10
2018-09-12T04:14:41.238Z,23.10
2018-09-12T04:17:09.471Z,23.10
2018-09-12T04:19:37.778Z,23.10
2018-09-12T04:22:06.058Z,23.10
2018-09-12T04:24:35.071Z,23.10
2018-09-12T04:27:03.294Z,23.10
2018-09-12T04:29:31.856Z,23.10
2018-09-12T04:32:00.083Z,23.10
2018-09-12T04:34:28.458Z,23.20
2018-09-12T04:36:57.266Z,23.10
2018-09-12T04:39:25.602Z,23.10
2018-09-12T04:41:53.990Z,23.10
2018-09-12T04:44:22.574Z,23.10
2018-09-12T04:46:50.820Z,23.10
2018-09-12T04:49:19.059Z,23.20
2018-09-12T04:51:47.322Z,23.10
2018-09-12T04:54:15.634Z,23.10
2018-09-12T04:56:43.926Z,23.10
2018-09-12T04:59:12.210Z,23.10
2018-09-12T05:01:40.511Z,23.10
2018-09-12T05:04:10.363Z,23.10
2018-09-12T05:06:39.050Z,23.10
2018-09-12T05:09:08.890Z,23.20
2018-09-12T05:11:37.211Z,23.20
2018-09-12T05:14:05.919Z,23.10
2018-09-12T05:16:34.147Z,23.10
2018-09-12T05:19:02.429Z,23.10
2018-09-12T05:21:30.960Z,23.10
2018-09-12T05:23:59.264Z,23.10
2018-09-12T05:26:27.570Z,23.10
2018-09-12T05:28:56.510Z,23.10
2018-09-12T05:31:24.794Z,23.10
2018-09-12T05:33:53.169Z,23.10
2018-09-12T05:36:21.768Z,23.10
2018-09-12T05:38:50.006Z,23.10
2018-09-12T05:41:18.219Z,23.10
2018-09-12T05:43:46.782Z,23.10
2018-09-12T05:46:14.998Z,23.10
2018-09-12T05:48:43.334Z,23.10
2018-09-12T05:51:12.126Z,23.10
2018-09-12T05:53:40.443Z,23.10
2018-09-12T05:56:08.674Z,23.10
2018-09-12T05:58:37.869Z,23.10
2018-09-12T06:01:06.108Z,23.10
2018-09-12T06:03:34.394Z,23.10
2018-09-12T06:06:03.554Z,23.10
2018-09-12T06:08:31.781Z,23.10
2018-09-12T06:11:00.245Z,23.10
2018-09-12T06:13:29.278Z,23.10
2018-09-12T06:15:57.501Z,23.20
2018-09-12T06:18:25.886Z,23.10
2018-09-12T06:20:57.078Z,23.10
2018-09-12T06:23:25.307Z,23.10
2018-09-12T06:25:53.530Z,23.20
2018-09-12T06:28:21.910Z,23.20
2018-09-12T06:30:50.234Z,23.20
2018-09-12T06:33:18.534Z,23.20
2018-09-12T06:35:46.834Z,23.20
2018-09-12T06:38:15.065Z,23.20
2018-09-12T06:40:43.299Z,23.20
2018-09-12T06:43:11.872Z,23.20
2018-09-12T06:45:40.110Z,23.20
2018-09-12T06:48:08.331Z,23.20
2018-09-12T06:50:36.711Z,23.20
2018-09-12T06:53:04.955Z,23.30
2018-09-12T06:55:33.247Z,23.20
2018-09-12T06:58:01.756Z,23.20
2018-09-12T07:00:30.006Z,23.20
2018-09-12T07:02:58.211Z,23.20
2018-09-12T07:05:27.193Z,23.20
2018-09-12T07:07:56.099Z,23.30
2018-09-12T07:10:24.325Z,23.30
2018-09-12T07:12:52.843Z,23.30
2018-09-12T07:15:21.146Z,23.30
2018-09-12T07:17:49.398Z,23.30
2018-09-12T07:20:17.867Z,23.30
2018-09-12T07:22:46.082Z,23.30
2018-09-12T07:25:14.394Z,23.30
2018-09-12T07:27:43.528Z,23.40
2018-09-12T07:30:11.633Z,23.30
2018-09-12T07:32:39.857Z,23.40
2018-09-12T07:35:08.473Z,23.40
2018-09-12T07:37:36.975Z,23.40
2018-09-12T07:40:05.200Z,23.40
2018-09-12T07:42:33.556Z,23.40
2018-09-12T07:45:01.777Z,23.40
2018-09-12T07:47:30.050Z,23.40
2018-09-12T07:49:59.649Z,23.40
2018-09-12T07:52:27.894Z,23.40
2018-09-12T07:54:56.131Z,23.40
2018-09-12T07:57:24.886Z,23.40
2018-09-12T07:59:53.194Z,23.40
2018-09-12T08:02:21.479Z,23.40
2018-09-12T08:04:52.083Z,23.40
2018-09-12T08:07:20.335Z,23.40
2018-09-12T08:09:48.548Z,23.50
2018-09-12T08:12:17.662Z,23.50
2018-09-12T08:14:45.838Z,23.50
2018-09-12T08:17:14.268Z,23.50
2018-09-12T08:19:43.278Z,23.50
2018-09-12T08:22:11.585Z,23.50
2018-09-12T08:24:39.891Z,23.50
2018-09-12T08:27:08.557Z,23.50
2018-09-12T08:29:36.963Z,23.50
2018-09-12T08:32:05.213Z,23.50
2018-09-12T08:34:33.649Z,23.50
2018-09-12T08:37:01.895Z,23.50
2018-09-12T08:39:30.138Z,23.50
2018-09-12T08:41:59.322Z,23.50
2018-09-12T08:44:27.611Z,23.50
2018-09-12T08:46:55.847Z,23.50
2018-09-12T08:49:24.447Z,23.60
2018-09-12T08:51:52.670Z,23.50
2018-09-12T08:54:20.906Z,23.60
2018-09-12T08:56:49.730Z,23.50
2018-09-12T08:59:17.986Z,23.60
2018-09-12T09:01:46.359Z,23.60
2018-09-12T09:04:14.693Z,23.60
2018-09-12T09:06:43.633Z,23.60
2018-09-12T09:09:12.658Z,23.60
2018-09-12T09:11:41.392Z,23.60
2018-09-12T09:14:09.627Z,23.60
2018-09-12T09:16:37.943Z,23.60
2018-09-12T09:19:07.350Z,23.60
2018-09-12T09:21:35.679Z,23.60
2018-09-12T09:24:04.918Z,23.60
2018-09-12T09:26:34.126Z,23.60
2018-09-12T09:29:02.359Z,23.60
2018-09-12T09:31:30.575Z,23.70
2018-09-12T09:33:59.057Z,23.70
2018-09-12T09:36:27.362Z,23.70
2018-09-12T09:38:55.590Z,23.70
2018-09-12T09:41:24.806Z,23.70
2018-09-12T09:43:53.212Z,23.70
2018-09-12T09:46:21.438Z,23.80
2018-09-12T09:48:50.042Z,23.80
2018-09-12T09:51:18.335Z,23.80
2018-09-12T09:53:46.614Z,23.80
2018-09-12T09:56:15.289Z,23.80
2018-09-12T09:58:43.531Z,23.80
2018-09-12T10:01:17.680Z,23.80
2018-09-12T10:03:51.477Z,23.80
2018-09-12T10:06:24.578Z,23.90
2018-09-12T10:08:54.600Z,23.90
2018-09-12T10:11:23.029Z,23.90
2018-09-12T10:13:51.997Z,24.00
2018-09-12T10:16:20.814Z,24.00
2018-09-12T10:18:49.071Z,24.10
2018-09-12T10:21:18.847Z,24.10
2018-09-12T10:23:47.152Z,24.20
2018-09-12T10:26:15.475Z,24.20
2018-09-12T10:28:44.178Z,24.30
2018-09-12T10:31:12.406Z,24.30
2018-09-12T10:33:40.642Z,24.30
2018-09-12T10:36:09.426Z,24.30
2018-09-12T10:38:37.663Z,24.30
2018-09-12T10:41:06.004Z,24.30
2018-09-12T10:43:35.796Z,24.30
2018-09-12T10:46:04.044Z,24.30
2018-09-12T10:48:32.268Z,24.30
2018-09-12T10:51:00.622Z,24.30
2018-09-12T10:53:28.842Z,24.30
2018-09-12T10:55:57.062Z,24.20
2018-09-12T10:58:25.354Z,24.30
2018-09-12T11:00:53.662Z,24.20
2018-09-12T11:03:25.502Z,24.20
2018-09-12T11:05:54.074Z,24.20
2018-09-12T11:08:22.406Z,24.20
2018-09-12T11:10:50.698Z,24.20
2018-09-12T11:13:19.517Z,24.20
2018-09-12T11:15:47.767Z,24.20
2018-09-12T11:18:15.988Z,24.20
2018-09-12T11:20:44.968Z,24.20
2018-09-12T11:23:13.200Z,24.20
2018-09-12T11:25:41.514Z,24.20
2018-09-12T11:28:10.002Z,24.30
2018-09-12T11:30:38.247Z,24.30
2018-09-12T11:33:06.481Z,24.30
2018-09-12T11:35:35.063Z,24.30
2018-09-12T11:38:03.300Z,24.30
2018-09-12T11:40:31.546Z,24.30
2018-09-12T11:43:00.071Z,24.30
2018-09-12T11:45:28.301Z,24.30
2018-09-12T11:47:56.525Z,24.30
2018-09-12T11:50:25.110Z,24.30
2018-09-12T11:52:53.358Z,24.30
2018-09-12T11:55:21.733Z,24.30
2018-09-12T11:57:50.088Z,24.30
2018-09-12T12:00:18.371Z,24.30
2018-09-12T12:02:46.595Z,24.30
2018-09-12T12:05:16.413Z,24.20
2018-09-12T12:07:44.734Z,24.20
2018-09-12T12:10:12.963Z,24.20
2018-09-12T12:12:41.442Z,24.20
2018-09-12T12:15:09.691Z,24.20
2018-09-12T12:17:38.142Z,24.20
2018-09-12T12:20:07.198Z,24.20
2018-09-12T12:22:35.521Z,24.20
2018-09-12T12:25:03.790Z,24.20
2018-09-12T12:27:33.310Z,24.20
2018-09-12T12:30:01.571Z,24.20
2018-09-12T12:32:29.827Z,24.20
2018-09-12T12:34:58.201Z,24.30
2018-09-12T12:37:26.421Z,24.30
2018-09-12T12:39:54.643Z,24.30
2018-09-12T12:42:23.331Z,24.30
2018-09-12T12:44:51.636Z,24.40
2018-09-12T12:47:19.992Z,24.40
2018-09-12T12:49:49.595Z,24.40
2018-09-12T12:52:17.860Z,24.40
2018-09-12T12:54:46.074Z,24.40
2018-09-12T12:57:15.044Z,24.40
2018-09-12T12:59:43.359Z,24.40
2018-09-12T13:02:11.690Z,24.40
2018-09-12T13:04:41.106Z,24.30
2018-09-12T13:07:10.259Z,24.40
2018-09-12T13:09:38.561Z,24.40
2018-09-12T13:12:06.926Z,24.40
2018-09-12T13:14:35.233Z,24.40
2018-09-12T13:17:03.517Z,24.40
2018-09-12T13:19:32.095Z,24.40
2018-09-12T13:22:00.316Z,24.40
2018-09-12T13:24:28.562Z,24.40
2018-09-12T13:26:58.447Z,24.30
2018-09-12T13:29:26.695Z,24.40
2018-09-12T13:31:55.007Z,24.40
2018-09-12T13:34:23.399Z,24.40
2018-09-12T13:36:51.995Z,24.40
2018-09-12T13:39:20.862Z,24.40
2018-09-12T13:41:49.094Z,24.40
2018-09-12T13:44:17.478Z,24.40
2018-09-12T13:46:45.890Z,24.40
2018-09-12T13:49:14.129Z,24.50
2018-09-12T13:51:42.356Z,24.40
2018-09-12T13:54:10.629Z,24.40
2018-09-12T13:56:38.910Z,24.40
2018-09-12T13:59:07.094Z,24.40
2018-09-12T14:01:35.558Z,24.40
2018-09-12T14:04:05.380Z,24.40
2018-09-12T14:06:33.717Z,24.40
2018-09-12T14:09:02.433Z,24.40
2018-09-12T14:11:30.681Z,24.50
2018-09-12T14:13:58.989Z,24.40
2018-09-12T14:16:27.588Z,24.50
2018-09-12T14:18:55.817Z,24.40
2018-09-12T14:21:24.050Z,24.40
2018-09-12T14:23:52.871Z,24.50
2018-09-12T14:26:21.083Z,24.40
2018-09-12T14:28:49.386Z,24.40
2018-09-12T14:31:18.387Z,24.40
2018-09-12T14:33:46.607Z,24.40
2018-09-12T14:36:14.910Z,24.40
2018-09-12T14:38:43.500Z,24.40
2018-09-12T14:41:11.734Z,24.40
2018-09-12T14:43:39.967Z,24.40
2018-09-12T14:46:08.838Z,24.40
2018-09-12T14:48:37.074Z,24.40
2018-09-12T14:51:05.442Z,24.40
2018-09-12T14:53:33.710Z,24.40
2018-09-12T14:56:02.031Z,24.40
2018-09-12T14:58:30.254Z,24.40
2018-09-12T15:00:58.914Z,24.40
2018-09-12T15:03:27.183Z,24.40
2018-09-12T15:05:55.434Z,24.40
2018-09-12T15:08:25.382Z,24.40
2018-09-12T15:10:53.606Z,24.40
2018-09-12T15:13:21.835Z,24.40
2018-09-12T15:15:50.530Z,24.40
2018-09-12T15:18:18.770Z,24.40
2018-09-12T15:20:47.004Z,24.40
2018-09-12T15:23:15.354Z,24.40
2018-09-12T15:25:43.620Z,24.40
2018-09-12T15:28:11.859Z,24.40
2018-09-12T15:30:40.695Z,24.40
2018-09-12T15:33:08.940Z,24.40
2018-09-12T15:35:37.159Z,24.40
2018-09-12T15:38:05.627Z,24.30
2018-09-12T15:40:33.863Z,24.30
2018-09-12T15:43:02.100Z,24.30
2018-09-12T15:45:30.627Z,24.30
2018-09-12T15:47:58.845Z,24.30
2018-09-12T15:50:27.195Z,24.30
2018-09-12T15:52:56.203Z,24.30
2018-09-12T15:55:24.442Z,24.30
2018-09-12T15:57:52.759Z,24.30
2018-09-12T16:00:21.011Z,24.30
2018-09-12T16:02:49.263Z,24.30
2018-09-12T16:05:17.466Z,24.30
2018-09-12T16:07:45.878Z,24.30
2018-09-12T16:10:15.291Z,24.30
2018-09-12T16:12:43.517Z,24.20
2018-09-12T16:15:12.653Z,24.30
2018-09-12T16:17:40.837Z,24.30
2018-09-12T16:20:09.090Z,24.20
2018-09-12T16:22:37.414Z,24.20
2018-09-12T16:25:05.672Z,24.20
2018-09-12T16:27:34.004Z,24.20
2018-09-12T16:30:02.302Z,24.20
2018-09-12T16:32:30.567Z,24.20
2018-09-12T16:34:58.806Z,24.20
2018-09-12T16:37:28.369Z,24.20
2018-09-12T16:39:56.624Z,24.20
2018-09-12T16:42:24.845Z,24.20
2018-09-12T16:44:53.107Z,24.20
2018-09-12T16:47:21.428Z,24.20
2018-09-12T16:49:49.647Z,24.20
2018-09-12T16:52:17.997Z,24.20
2018-09-12T16:54:46.227Z,24.20
2018-09-12T16:57:14.491Z,24.20
2018-09-12T16:59:44.087Z,24.20
2018-09-12T17:02:12.354Z,24.20
2018-09-12T17:04:42.532Z,24.20
2018-09-12T17:07:11.254Z,24.20
2018-09-12T17:09:39.499Z,24.20
2018-09-12T17:12:08.602Z,24.20
2018-09-12T17:14:37.550Z,24.20
2018-09-12T17:17:06.180Z,24.20
2018-09-12T17:19:34.765Z,24.20
2018-09-12T17:22:03.720Z,24.20
2018-09-12T17:24:32.037Z,24.20
2018-09-12T17:27:00.415Z,24.20
2018-09-12T17:29:29.046Z,24.20
2018-09-12T17:31:57.287Z,24.10
2018-09-12T17:34:25.604Z,24.20
2018-09-12T17:36:54.567Z,24.20
2018-09-12T17:39:22.847Z,24.20
2018-09-12T17:41:51.163Z,24.20
2018-09-12T17:44:19.844Z,24.20
2018-09-12T17:46:48.091Z,24.20
2018-09-12T17:49:16.407Z,24.20
2018-09-12T17:51:44.870Z,24.20
2018-09-12T17:54:13.232Z,24.20
2018-09-12T17:56:41.497Z,24.20
2018-09-12T17:59:10.225Z,24.20
2018-09-12T18:01:38.559Z,24.30
2018-09-12T18:04:07.007Z,24.30
2018-09-12T18:06:36.627Z,24.30
2018-09-12T18:09:07.482Z,24.30
2018-09-12T18:11:35.787Z,24.30
2018-09-12T18:14:05.301Z,24.30
2018-09-12T18:16:33.542Z,24.30
2018-09-12T18:19:02.266Z,24.30
2018-09-12T18:21:30.805Z,24.30
2018-09-12T18:23:59.076Z,24.30
2018-09-12T18:26:27.907Z,24.30
2018-09-12T18:28:56.461Z,24.30
2018-09-12T18:31:24.716Z,24.30
2018-09-12T18:33:53.164Z,24.30
2018-09-12T18:36:21.494Z,24.30
2018-09-12T18:38:49.761Z,24.30
2018-09-12T18:41:18.266Z,24.30
2018-09-12T18:43:46.503Z,24.30
2018-09-12T18:46:14.888Z,24.30
2018-09-12T18:48:44.353Z,24.40
2018-09-12T18:51:12.597Z,24.30
2018-09-12T18:53:41.385Z,24.40
2018-09-12T18:56:10.631Z,24.40
2018-09-12T18:58:39.776Z,24.40
2018-09-12T19:01:08.058Z,24.40
2018-09-12T19:03:36.780Z,24.40
2018-09-12T19:06:05.041Z,24.40
2018-09-12T19:08:33.388Z,24.30
2018-09-12T19:11:02.742Z,24.40
2018-09-12T19:13:30.999Z,24.40
2018-09-12T19:16:00.266Z,24.30
2018-09-12T19:18:28.920Z,24.40
2018-09-12T19:20:57.138Z,24.40
2018-09-12T19:23:25.464Z,24.40
2018-09-12T19:25:54.383Z,24.30
2018-09-12T19:28:22.724Z,24.40
2018-09-12T19:30:51.116Z,24.40
2018-09-12T19:33:21.019Z,24.40
2018-09-12T19:35:49.378Z,24.40
2018-09-12T19:38:17.612Z,24.30
2018-09-12T19:40:46.651Z,24.40
2018-09-12T19:43:14.976Z,24.30
2018-09-12T19:45:43.274Z,24.40
2018-09-12T19:48:12.047Z,24.30
2018-09-12T19:50:40.386Z,24.30
2018-09-12T19:53:08.706Z,24.30
2018-09-12T19:55:37.619Z,24.30
2018-09-12T19:58:05.884Z,24.30
2018-09-12T20:00:34.322Z,24.30
2018-09-12T20:03:02.702Z,24.30
2018-09-12T20:05:33.055Z,24.30
2018-09-12T20:08:01.399Z,24.30
2018-09-12T20:10:29.713Z,24.30
2018-09-12T20:12:57.982Z,24.30
2018-09-12T20:15:26.220Z,24.30
2018-09-12T20:17:55.234Z,24.30
2018-09-12T20:20:23.573Z,24.30
2018-09-12T20:22:52.419Z,24.30
2018-09-12T20:25:21.139Z,24.30
2018-09-12T20:27:49.390Z,24.30
2018-09-12T20:30:18.183Z,24.30
2018-09-12T20:32:46.848Z,24.30
2018-09-12T20:35:15.158Z,24.30
2018-09-12T20:37:43.393Z,24.30
2018-09-12T20:40:11.684Z,24.30
2018-09-12T20:42:40.142Z,24.30
2018-09-12T20:45:08.474Z,24.30
2018-09-12T20:47:37.242Z,24.30
2018-09-12T20:50:05.770Z,24.30
2018-09-12T20:52:34.199Z,24.30
2018-09-12T20:55:05.106Z,24.20
2018-09-12T20:57:33.450Z,24.30
2018-09-12T21:00:01.785Z,24.30
2018-09-12T21:02:30.242Z,24.30
2018-09-12T21:04:58.476Z,24.30
2018-09-12T21:07:26.734Z,24.20
2018-09-12T21:09:55.786Z,24.20
2018-09-12T21:12:23.999Z,24.30
2018-09-12T21:14:52.234Z,24.30
2018-09-12T21:17:21.442Z,24.30
2018-09-12T21:19:49.694Z,24.30
2018-09-12T21:22:18.010Z,24.30
2018-09-12T21:24:47.000Z,24.20
2018-09-12T21:27:15.319Z,24.20
2018-09-12T21:29:43.624Z,24.20
2018-09-12T21:32:12.739Z,24.20
2018-09-12T21:34:40.990Z,24.20
2018-09-12T21:37:09.222Z,24.20
2018-09-12T21:39:37.675Z,24.20
2018-09-12T21:42:06.101Z,24.20
2018-09-12T21:44:34.337Z,24.20
2018-09-12T21:47:03.118Z,24.20
2018-09-12T21:49:31.367Z,24.20
2018-09-12T21:51:59.682Z,24.20
2018-09-12T21:54:31.638Z,24.20
2018-09-12T21:57:00.031Z,24.20
2018-09-12T21:59:28.331Z,24.20
2018-09-12T22:01:56.635Z,24.20
2018-09-12T22:04:25.024Z,24.20
2018-09-12T22:06:53.942Z,24.20
2018-09-12T22:09:22.240Z,24.10
2018-09-12T22:11:50.534Z,24.10
2018-09-12T22:14:19.695Z,24.10
2018-09-12T22:16:48.000Z,24.10
2018-09-12T22:19:16.975Z,24.10
2018-09-12T22:21:45.524Z,24.10
2018-09-12T22:24:13.749Z,24.10
2018-09-12T22:26:42.056Z,24.10
2018-09-12T22:29:11.000Z,24.10
2018-09-12T22:31:39.226Z,24.10
2018-09-12T22:34:07.479Z,24.10
2018-09-12T22:36:36.842Z,24.10
2018-09-12T22:39:08.441Z,24.10
2018-09-12T22:41:36.667Z,24.10
2018-09-12T22:44:04.929Z,24.10
2018-09-12T22:46:33.154Z,24.10
2018-09-12T22:49:01.599Z,24.10
2018-09-12T22:51:29.828Z,24.10
2018-09-12T22:53:58.050Z,24.10
2018-09-12T22:56:26.886Z,24.10
2018-09-12T22:58:55.138Z,24.10
2018-09-12T23:01:23.457Z,24.10
2018-09-12T23:03:53.327Z,24.00
2018-09-12T23:06:21.690Z,24.10
2018-09-12T23:08:49.940Z,24.10
2018-09-12T23:11:18.558Z,24.00
2018-09-12T23:13:46.869Z,24.00
2018-09-12T23:16:15.181Z,24.00
2018-09-12T23:18:43.798Z,24.00
2018-09-12T23:21:12.697Z,24.00
2018-09-12T23:23:40.993Z,24.00
2018-09-12T23:26:09.320Z,24.00
2018-09-12T23:28:37.619Z,24.00
2018-09-12T23:31:06.306Z,24.00
2018-09-12T23:33:34.602Z,24.00
2018-09-12T23:36:02.887Z,24.00
2018-09-12T23:38:31.859Z,24.00
2018-09-12T23:41:00.070Z,24.00
2018-09-12T23:43:28.290Z,24.00
2018-09-12T23:45:57.298Z,24.00
2018-09-12T23:48:25.506Z,24.00
2018-09-12T23:50:53.821Z,24.00
2018-09-12T23:53:22.874Z,24.00
2018-09-12T23:55:51.103Z,23.90
2018-09-12T23:58:19.393Z,24.00
